createdAt,value
2018-05-03T00:00:25.888Z,10.40
2018-05-03T00:02:53.352Z,10.40
2018-05-03T00:05:20.824Z,10.30
2018-05-03T00:07:48.272Z,10.30
2018-05-03T00:10:16.616Z,10.20
2018-05-03T00:12:44.071Z,10.10
2018-05-03T00:15:11.623Z,10.10
2018-05-03T00:17:39.090Z,10.10
2018-05-03T00:20:06.600Z,10.10
2018-05-03T00:22:34.130Z,10.00
2018-05-03T00:25:02.341Z,10.00
2018-05-03T00:27:29.803Z,9.90
2018-05-03T00:29:57.315Z,9.90
2018-05-03T00:32:24.776Z,9.90
2018-05-03T00:34:52.228Z,9.90
2018-05-03T00:37:19.712Z,9.90
2018-05-03T00:39:47.164Z,9.80
2018-05-03T00:42:14.952Z,9.80
2018-05-03T00:44:42.396Z,9.80
2018-05-03T00:47:09.860Z,9.80
2018-05-03T00:49:37.301Z,9.70
2018-05-03T00:52:05.521Z,9.70
2018-05-03T00:54:44.928Z,9.70
2018-05-03T00:57:12.332Z,9.70
2018-05-03T00:59:39.781Z,9.70
2018-05-03T01:02:08.337Z,9.70
2018-05-03T01:04:35.812Z,9.70
2018-05-03T01:07:03.276Z,9.60
2018-05-03T01:09:30.728Z,9.70
2018-05-03T01:11:58.197Z,9.60
2018-05-03T01:14:25.656Z,9.60
2018-05-03T01:16:53.158Z,9.60
2018-05-03T01:19:20.672Z,9.60
2018-05-03T01:21:48.916Z,9.50
2018-05-03T01:24:16.383Z,9.50
2018-05-03T01:26:43.833Z,9.50
2018-05-03T01:29:11.284Z,9.40
2018-05-03T01:31:38.743Z,9.40
2018-05-03T01:34:06.201Z,9.40
2018-05-03T01:36:34.412Z,9.30
2018-05-03T01:39:01.981Z,9.30
2018-05-03T01:41:30.184Z,9.50
2018-05-03T01:43:57.688Z,9.50
2018-05-03T01:46:25.137Z,9.60
2018-05-03T01:48:53.397Z,9.60
2018-05-03T01:51:21.686Z,9.60
2018-05-03T01:53:49.262Z,9.60
2018-05-03T01:56:16.706Z,9.70
2018-05-03T01:58:44.948Z,9.80
2018-05-03T02:01:12.388Z,9.80
2018-05-03T02:03:39.840Z,9.90
2018-05-03T02:06:08.084Z,10.00
2018-05-03T02:08:35.553Z,10.00
2018-05-03T02:11:03.012Z,10.10
2018-05-03T02:13:30.492Z,10.10
2018-05-03T02:15:57.956Z,10.10
2018-05-03T02:18:25.443Z,10.10
2018-05-03T02:20:52.900Z,10.20
2018-05-03T02:23:20.387Z,10.20
2018-05-03T02:25:47.944Z,10.30
2018-05-03T02:28:15.392Z,10.30
2018-05-03T02:30:42.856Z,10.30
2018-05-03T02:33:10.302Z,10.30
2018-05-03T02:35:38.600Z,10.40
2018-05-03T02:38:06.812Z,10.50
2018-05-03T02:40:34.276Z,10.50
2018-05-03T02:43:01.726Z,10.50
2018-05-03T02:45:29.947Z,10.60
2018-05-03T02:47:57.465Z,10.60
2018-05-03T02:50:25.694Z,10.70
2018-05-03T02:52:53.170Z,10.60
2018-05-03T02:55:20.651Z,10.70
2018-05-03T02:58:05.761Z,10.70
2018-05-03T03:00:51.037Z,10.70
2018-05-03T03:07:04.316Z,10.80
2018-05-03T03:13:04.343Z,10.90
2018-05-03T03:15:43.608Z,10.90
2018-05-03T03:18:28.692Z,11.00
2018-05-03T03:21:13.660Z,11.00
2018-05-03T03:23:58.931Z,11.00
2018-05-03T03:26:44.136Z,11.10
2018-05-03T03:29:29.317Z,11.00
2018-05-03T03:32:14.834Z,11.00
2018-05-03T03:34:42.292Z,11.00
2018-05-03T03:37:32.248Z,11.10
2018-05-03T03:40:17.417Z,11.20
2018-05-03T03:45:54.764Z,11.20
2018-05-03T03:48:23.762Z,11.30
2018-05-03T03:50:51.238Z,11.30
2018-05-03T03:53:18.736Z,11.40
2018-05-03T03:57:25.847Z,11.50
2018-05-03T03:59:54.100Z,11.70
2018-05-03T04:02:21.596Z,11.70
2018-05-03T04:04:49.887Z,11.80
2018-05-03T04:07:18.128Z,11.90
2018-05-03T04:09:45.618Z,11.80
2018-05-03T04:12:13.085Z,11.90
2018-05-03T04:14:40.547Z,11.90
2018-05-03T04:17:08.045Z,12.00
2018-05-03T04:19:47.232Z,12.00
2018-05-03T04:22:27.412Z,12.00
2018-05-03T04:25:06.869Z,12.00
2018-05-03T04:27:35.100Z,12.00
2018-05-03T04:30:02.568Z,11.90
2018-05-03T04:32:30.036Z,12.00
2018-05-03T04:34:57.637Z,11.90
2018-05-03T04:37:25.121Z,11.90
2018-05-03T04:39:52.589Z,11.90
2018-05-03T04:42:20.057Z,12.00
2018-05-03T04:44:47.512Z,12.10
2018-05-03T04:47:14.976Z,12.20
2018-05-03T04:49:42.436Z,12.20
2018-05-03T04:52:09.917Z,12.30
2018-05-03T04:54:37.365Z,12.30
2018-05-03T04:57:04.824Z,12.20
2018-05-03T04:59:32.383Z,12.20
2018-05-03T05:02:00.812Z,12.00
2018-05-03T05:04:28.277Z,12.00
2018-05-03T05:06:55.733Z,12.00
2018-05-03T05:09:23.204Z,12.00
2018-05-03T05:11:50.680Z,11.90
2018-05-03T05:14:18.139Z,11.90
2018-05-03T05:16:45.589Z,11.90
2018-05-03T05:19:13.052Z,11.90
2018-05-03T05:21:41.268Z,11.90
2018-05-03T05:24:08.743Z,11.90
2018-05-03T05:26:36.185Z,11.90
2018-05-03T05:29:03.663Z,11.90
2018-05-03T05:31:31.235Z,12.00
2018-05-03T05:33:58.692Z,11.90
2018-05-03T05:36:26.921Z,11.90
2018-05-03T05:38:54.449Z,11.90
2018-05-03T05:41:21.962Z,11.90
2018-05-03T05:43:49.505Z,12.00
2018-05-03T05:46:16.969Z,12.10
2018-05-03T05:48:44.422Z,12.10
2018-05-03T05:51:12.704Z,12.00
2018-05-03T05:53:40.100Z,12.00
2018-05-03T05:56:07.561Z,12.00
2018-05-03T05:58:35.011Z,12.00
2018-05-03T06:01:03.248Z,12.10
2018-05-03T06:03:30.707Z,12.10
2018-05-03T06:05:58.173Z,12.20
2018-05-03T06:08:25.640Z,12.20
2018-05-03T06:10:53.157Z,12.20
2018-05-03T06:13:20.620Z,12.30
2018-05-03T06:15:48.077Z,12.30
2018-05-03T06:18:15.558Z,12.30
2018-05-03T06:20:43.020Z,12.20
2018-05-03T06:23:10.477Z,12.40
2018-05-03T06:25:37.941Z,12.40
2018-05-03T06:28:05.401Z,12.40
2018-05-03T06:30:32.848Z,12.60
2018-05-03T06:33:01.085Z,13.00
2018-05-03T06:35:28.553Z,13.00
2018-05-03T06:37:56.093Z,13.20
2018-05-03T06:40:24.310Z,13.40
2018-05-03T06:42:51.810Z,13.50
2018-05-03T06:45:19.309Z,13.60
2018-05-03T06:47:46.827Z,13.80
2018-05-03T06:50:14.272Z,13.90
2018-05-03T06:52:41.732Z,14.10
2018-05-03T06:55:09.192Z,14.10
2018-05-03T06:57:36.709Z,14.10
2018-05-03T07:00:04.161Z,14.50
2018-05-03T07:02:31.608Z,14.70
2018-05-03T07:04:59.077Z,14.60
2018-05-03T07:07:26.541Z,14.70
2018-05-03T07:09:54.878Z,15.30
2018-05-03T07:12:23.028Z,15.50
2018-05-03T07:14:50.728Z,15.40
2018-05-03T07:17:18.268Z,15.50
2018-05-03T07:19:45.840Z,15.80
2018-05-03T07:22:14.059Z,16.10
2018-05-03T07:24:41.508Z,16.10
2018-05-03T07:27:08.952Z,16.40
2018-05-03T07:29:37.180Z,16.70
2018-05-03T07:32:04.629Z,16.60
2018-05-03T07:34:32.197Z,16.80
2018-05-03T07:37:00.420Z,17.40
2018-05-03T07:39:28.058Z,17.40
2018-05-03T07:41:56.272Z,17.60
2018-05-03T07:44:23.740Z,17.50
2018-05-03T07:46:51.248Z,17.70
2018-05-03T07:49:18.693Z,17.80
2018-05-03T07:51:46.267Z,18.40
2018-05-03T07:54:13.728Z,18.50
2018-05-03T07:56:41.223Z,18.40
2018-05-03T07:59:08.648Z,18.70
2018-05-03T08:01:36.116Z,18.90
2018-05-03T08:04:03.686Z,19.10
2018-05-03T08:06:31.913Z,18.70
2018-05-03T08:08:59.400Z,18.60
2018-05-03T08:11:26.870Z,18.20
2018-05-03T08:13:54.320Z,18.10
2018-05-03T08:16:21.809Z,18.10
2018-05-03T08:18:49.268Z,18.10
2018-05-03T08:21:16.768Z,18.40
2018-05-03T08:23:44.986Z,18.80
2018-05-03T08:26:12.451Z,18.80
2018-05-03T08:28:40.681Z,17.90
2018-05-03T08:31:08.128Z,17.90
2018-05-03T08:33:35.587Z,17.50
2018-05-03T08:36:03.049Z,17.20
2018-05-03T08:38:30.519Z,17.40
2018-05-03T08:40:57.989Z,17.60
2018-05-03T08:43:25.561Z,17.60
2018-05-03T08:45:53.769Z,18.30
2018-05-03T08:48:21.271Z,18.30
2018-05-03T08:50:48.781Z,18.60
2018-05-03T08:53:17.000Z,19.40
2018-05-03T08:55:44.457Z,19.40
2018-05-03T08:58:11.908Z,19.50
2018-05-03T09:00:39.363Z,19.90
2018-05-03T09:03:07.592Z,20.80
2018-05-03T09:05:35.038Z,20.80
2018-05-03T09:08:02.492Z,20.70
2018-05-03T09:10:30.716Z,19.80
2018-05-03T09:12:58.184Z,19.80
2018-05-03T09:15:25.689Z,19.40
2018-05-03T09:17:53.156Z,19.90
2018-05-03T09:20:20.740Z,20.30
2018-05-03T09:22:48.190Z,19.70
2018-05-03T09:25:15.756Z,18.90
2018-05-03T09:27:43.228Z,18.50
2018-05-03T09:30:10.697Z,18.60
2018-05-03T09:32:38.182Z,18.50
2018-05-03T09:35:05.741Z,18.10
2018-05-03T09:37:33.193Z,18.50
2018-05-03T09:40:00.653Z,19.30
2018-05-03T09:42:28.107Z,20.10
2018-05-03T09:44:56.352Z,21.20
2018-05-03T09:47:23.816Z,21.20
2018-05-03T09:49:51.333Z,21.80
2018-05-03T09:52:18.820Z,22.40
2018-05-03T09:54:46.274Z,23.10
2018-05-03T09:57:14.506Z,23.10
2018-05-03T09:59:42.046Z,23.10
2018-05-03T10:02:09.553Z,23.40
2018-05-03T10:04:37.088Z,22.80
2018-05-03T10:07:05.310Z,21.10
2018-05-03T10:09:32.757Z,21.00
2018-05-03T10:12:00.216Z,20.80
2018-05-03T10:14:27.668Z,21.60
2018-05-03T10:16:55.904Z,22.20
2018-05-03T10:19:23.388Z,22.20
2018-05-03T10:21:50.964Z,22.40
2018-05-03T10:24:18.421Z,22.70
2018-05-03T10:26:45.891Z,23.00
2018-05-03T10:29:13.353Z,23.90
2018-05-03T10:31:40.832Z,23.90
2018-05-03T10:34:08.288Z,25.00
2018-05-03T10:36:35.740Z,25.20
2018-05-03T10:39:03.200Z,25.10
2018-05-03T10:41:30.716Z,24.60
2018-05-03T10:43:58.288Z,24.40
2018-05-03T10:46:25.743Z,24.20
2018-05-03T10:48:53.262Z,24.10
2018-05-03T10:51:20.735Z,24.40
2018-05-03T10:53:48.990Z,24.10
2018-05-03T10:56:16.518Z,24.10
2018-05-03T10:58:44.736Z,24.00
2018-05-03T11:01:12.184Z,24.00
2018-05-03T11:03:39.908Z,23.90
2018-05-03T11:06:07.367Z,23.80
2018-05-03T11:08:34.808Z,22.90
2018-05-03T11:11:02.455Z,23.10
2018-05-03T11:13:29.825Z,22.90
2018-05-03T11:15:57.352Z,22.30
2018-05-03T11:18:24.805Z,21.90
2018-05-03T11:20:52.286Z,22.10
2018-05-03T11:23:19.737Z,21.80
2018-05-03T11:25:47.232Z,21.40
2018-05-03T11:28:14.676Z,21.20
2018-05-03T11:30:42.129Z,21.70
2018-05-03T11:33:09.576Z,22.30
2018-05-03T11:35:37.800Z,22.40
2018-05-03T11:38:05.256Z,22.40
2018-05-03T11:40:32.729Z,22.70
2018-05-03T11:43:00.181Z,22.70
2018-05-03T11:45:28.420Z,23.50
2018-05-03T11:47:55.874Z,23.50
2018-05-03T11:50:23.342Z,23.60
2018-05-03T11:52:50.860Z,23.80
2018-05-03T11:55:19.394Z,23.60
2018-05-03T11:57:46.892Z,23.60
2018-05-03T12:00:14.344Z,23.70
2018-05-03T12:02:41.893Z,23.40
2018-05-03T12:05:09.340Z,23.70
2018-05-03T12:07:37.589Z,23.30
2018-05-03T12:10:05.036Z,23.30
2018-05-03T12:12:32.543Z,22.70
2018-05-03T12:15:00.005Z,22.20
2018-05-03T12:17:27.476Z,21.40
2018-05-03T12:19:54.937Z,21.20
2018-05-03T12:22:22.404Z,21.20
2018-05-03T12:24:49.884Z,20.80
2018-05-03T12:27:17.351Z,20.40
2018-05-03T12:29:44.821Z,20.70
2018-05-03T12:32:12.273Z,20.80
2018-05-03T12:34:39.736Z,21.00
2018-05-03T12:37:07.180Z,21.10
2018-05-03T12:39:35.412Z,21.10
2018-05-03T12:42:02.861Z,21.20
2018-05-03T12:44:30.421Z,20.90
2018-05-03T12:46:58.624Z,20.50
2018-05-03T12:49:26.092Z,20.50
2018-05-03T12:51:53.642Z,20.10
2018-05-03T12:54:21.041Z,20.00
2018-05-03T12:56:48.488Z,19.80
2018-05-03T12:59:17.497Z,19.80
2018-05-03T13:01:44.966Z,19.60
2018-05-03T13:04:12.408Z,19.40
2018-05-03T13:06:40.636Z,19.40
2018-05-03T13:09:08.096Z,19.40
2018-05-03T13:11:35.568Z,19.70
2018-05-03T13:14:03.025Z,19.80
2018-05-03T13:16:30.485Z,19.80
2018-05-03T13:18:58.724Z,19.70
2018-05-03T13:21:26.196Z,19.70
2018-05-03T13:23:53.667Z,19.60
2018-05-03T13:26:21.145Z,19.40
2018-05-03T13:28:48.601Z,19.30
2018-05-03T13:31:16.073Z,19.20
2018-05-03T13:33:43.545Z,18.90
2018-05-03T13:36:11.013Z,19.00
2018-05-03T13:38:38.476Z,19.20
2018-05-03T13:41:05.921Z,19.30
2018-05-03T13:43:33.385Z,19.30
2018-05-03T13:46:00.829Z,19.40
2018-05-03T13:48:28.313Z,19.70
2018-05-03T13:50:56.539Z,19.90
2018-05-03T13:53:24.062Z,19.80
2018-05-03T13:55:51.743Z,20.20
2018-05-03T13:58:19.985Z,21.60
2018-05-03T14:00:47.520Z,21.60
2018-05-03T14:03:14.903Z,22.00
2018-05-03T14:05:42.364Z,22.00
2018-05-03T14:08:09.864Z,22.30
2018-05-03T14:10:37.312Z,22.60
2018-05-03T14:13:04.846Z,22.80
2018-05-03T14:15:32.347Z,22.70
2018-05-03T14:17:59.792Z,22.10
2018-05-03T14:20:28.022Z,21.20
2018-05-03T14:22:55.485Z,21.20
2018-05-03T14:25:22.965Z,21.00
2018-05-03T14:27:50.448Z,21.00
2018-05-03T14:30:17.928Z,20.70
2018-05-03T14:32:45.481Z,20.30
2018-05-03T14:35:12.949Z,20.70
2018-05-03T14:37:40.398Z,20.60
2018-05-03T14:40:07.860Z,20.50
2018-05-03T14:42:35.318Z,20.00
2018-05-03T14:45:02.868Z,19.90
2018-05-03T14:47:30.312Z,19.70
2018-05-03T14:49:57.776Z,19.70
2018-05-03T14:52:25.235Z,19.40
2018-05-03T14:54:52.769Z,19.20
2018-05-03T14:57:20.235Z,19.20
2018-05-03T14:59:48.967Z,19.20
2018-05-03T15:02:16.445Z,19.20
2018-05-03T15:04:43.949Z,19.20
2018-05-03T15:07:11.416Z,19.00
2018-05-03T15:09:38.946Z,18.80
2018-05-03T15:12:07.180Z,18.70
2018-05-03T15:14:34.630Z,18.70
2018-05-03T15:17:02.124Z,18.70
2018-05-03T15:19:29.535Z,18.70
2018-05-03T15:21:57.766Z,18.40
2018-05-03T15:24:25.209Z,18.40
2018-05-03T15:26:52.701Z,18.40
2018-05-03T15:29:20.200Z,18.40
2018-05-03T15:31:47.800Z,18.30
2018-05-03T15:34:16.112Z,18.20
2018-05-03T15:36:43.556Z,18.20
2018-05-03T15:39:11.801Z,18.10
2018-05-03T15:41:39.239Z,18.00
2018-05-03T15:44:06.713Z,18.00
2018-05-03T15:46:34.156Z,18.00
2018-05-03T15:49:02.396Z,17.80
2018-05-03T15:51:29.841Z,17.80
2018-05-03T15:53:57.344Z,17.80
2018-05-03T15:56:24.803Z,17.80
2018-05-03T15:58:52.262Z,17.70
2018-05-03T16:01:19.709Z,17.70
2018-05-03T16:03:47.236Z,17.70
2018-05-03T16:06:14.676Z,17.60
2018-05-03T16:08:42.149Z,17.60
2018-05-03T16:11:09.596Z,17.60
2018-05-03T16:13:37.067Z,17.50
2018-05-03T16:16:04.556Z,17.30
2018-05-03T16:18:32.017Z,17.30
2018-05-03T16:20:59.523Z,17.30
2018-05-03T16:23:26.981Z,17.30
2018-05-03T16:25:54.453Z,17.30
2018-05-03T16:28:23.461Z,17.30
2018-05-03T16:30:50.912Z,17.30
2018-05-03T16:33:18.392Z,17.30
2018-05-03T16:35:45.868Z,17.30
2018-05-03T16:38:13.317Z,17.30
2018-05-03T16:40:40.876Z,17.20
2018-05-03T16:43:08.385Z,17.20
2018-05-03T16:45:36.073Z,17.20
2018-05-03T16:48:03.590Z,17.20
2018-05-03T16:50:31.409Z,17.10
2018-05-03T16:52:58.874Z,17.00
2018-05-03T16:55:26.377Z,17.00
2018-05-03T16:57:54.606Z,17.00
2018-05-03T17:00:22.053Z,17.00
2018-05-03T17:02:50.416Z,17.00
2018-05-03T17:05:19.400Z,16.90
2018-05-03T17:07:46.880Z,16.90
2018-05-03T17:10:14.320Z,16.90
2018-05-03T17:12:41.784Z,16.80
2018-05-03T17:15:09.282Z,16.80
2018-05-03T17:17:36.753Z,16.80
2018-05-03T17:20:04.228Z,16.70
2018-05-03T17:22:31.697Z,16.70
2018-05-03T17:24:59.154Z,16.70
2018-05-03T17:27:26.649Z,16.70
2018-05-03T17:29:54.089Z,16.60
2018-05-03T17:32:21.570Z,16.60
2018-05-03T17:34:49.040Z,16.60
2018-05-03T17:37:16.504Z,16.50
2018-05-03T17:39:43.978Z,16.50
2018-05-03T17:42:11.425Z,16.40
2018-05-03T17:44:38.889Z,16.40
2018-05-03T17:47:06.340Z,16.40
2018-05-03T17:49:34.569Z,16.30
2018-05-03T17:52:02.120Z,16.30
2018-05-03T17:54:29.622Z,16.30
2018-05-03T17:56:57.119Z,16.20
2018-05-03T17:59:25.249Z,16.20
2018-05-03T18:01:53.670Z,16.10
2018-05-03T18:04:21.150Z,16.10
2018-05-03T18:06:48.589Z,16.10
2018-05-03T18:09:16.048Z,16.00
2018-05-03T18:11:43.496Z,16.00
2018-05-03T18:14:11.741Z,15.80
2018-05-03T18:16:39.200Z,15.80
2018-05-03T18:19:06.740Z,15.70
2018-05-03T18:21:34.213Z,15.60
2018-05-03T18:24:01.835Z,15.50
2018-05-03T18:26:29.361Z,15.40
2018-05-03T18:28:56.890Z,15.40
2018-05-03T18:31:24.332Z,15.30
2018-05-03T18:33:51.807Z,15.30
2018-05-03T18:36:19.265Z,15.20
2018-05-03T18:38:46.713Z,15.20
2018-05-03T18:41:14.178Z,15.10
2018-05-03T18:43:41.672Z,15.00
2018-05-03T18:46:09.123Z,14.90
2018-05-03T18:48:36.592Z,14.90
2018-05-03T18:51:04.832Z,14.70
2018-05-03T18:53:32.354Z,14.70
2018-05-03T18:55:59.845Z,14.60
2018-05-03T18:58:27.317Z,14.60
2018-05-03T19:00:54.847Z,14.50
2018-05-03T19:03:22.272Z,14.50
2018-05-03T19:05:49.738Z,14.40
2018-05-03T19:08:17.205Z,14.30
2018-05-03T19:10:44.669Z,14.30
2018-05-03T19:13:12.160Z,14.30
2018-05-03T19:15:39.608Z,14.10
2018-05-03T19:18:07.110Z,14.10
2018-05-03T19:20:34.582Z,14.00
2018-05-03T19:23:02.061Z,13.90
2018-05-03T19:25:29.527Z,13.80
2018-05-03T19:27:57.066Z,13.70
2018-05-03T19:30:24.897Z,13.70
2018-05-03T19:32:53.131Z,13.60
2018-05-03T19:35:20.888Z,13.50
2018-05-03T19:37:48.352Z,13.50
2018-05-03T19:40:15.801Z,13.40
2018-05-03T19:42:43.638Z,13.40
2018-05-03T19:45:11.868Z,13.20
2018-05-03T19:47:39.700Z,13.20
2018-05-03T19:50:12.121Z,13.10
2018-05-03T19:52:39.826Z,13.10
2018-05-03T19:55:07.269Z,13.00
2018-05-03T19:57:34.747Z,13.00
2018-05-03T20:00:02.971Z,12.80
2018-05-03T20:02:30.428Z,12.80
2018-05-03T20:04:58.675Z,12.70
2018-05-03T20:07:26.148Z,12.70
2018-05-03T20:09:54.390Z,12.60
2018-05-03T20:12:21.840Z,12.60
2018-05-03T20:14:49.314Z,12.60
2018-05-03T20:17:16.821Z,12.50
2018-05-03T20:19:44.278Z,12.40
2018-05-03T20:22:11.728Z,12.30
2018-05-03T20:24:39.192Z,12.20
2018-05-03T20:27:06.640Z,12.10
2018-05-03T20:29:34.896Z,12.00
2018-05-03T20:32:02.345Z,11.90
2018-05-03T20:34:29.828Z,11.90
2018-05-03T20:36:57.317Z,11.80
2018-05-03T20:39:24.756Z,11.70
2018-05-03T20:41:52.228Z,11.60
2018-05-03T20:44:19.677Z,11.50
2018-05-03T20:46:47.140Z,11.40
2018-05-03T20:49:14.693Z,11.40
2018-05-03T20:51:42.920Z,11.30
2018-05-03T20:54:10.377Z,11.20
2018-05-03T20:56:37.861Z,11.20
2018-05-03T20:59:05.301Z,11.20
2018-05-03T21:01:33.140Z,11.10
2018-05-03T21:04:02.096Z,11.00
2018-05-03T21:06:29.614Z,11.00
2018-05-03T21:08:57.081Z,10.90
2018-05-03T21:11:24.538Z,10.80
2018-05-03T21:13:51.996Z,10.80
2018-05-03T21:16:19.472Z,10.70
2018-05-03T21:18:47.004Z,10.70
2018-05-03T21:21:15.204Z,10.50
2018-05-03T21:23:42.666Z,10.50
2018-05-03T21:26:10.136Z,10.50
2018-05-03T21:28:38.340Z,10.30
2018-05-03T21:31:05.788Z,10.30
2018-05-03T21:33:33.274Z,10.20
2018-05-03T21:36:00.741Z,10.30
2018-05-03T21:38:28.233Z,10.20
2018-05-03T21:40:55.731Z,10.20
2018-05-03T21:43:23.981Z,10.10
2018-05-03T21:45:51.464Z,10.00
2018-05-03T21:48:18.933Z,10.00
2018-05-03T21:50:46.405Z,9.90
2018-05-03T21:53:13.860Z,9.90
2018-05-03T21:55:41.340Z,9.80
2018-05-03T21:58:08.821Z,9.70
2018-05-03T22:00:36.263Z,9.70
2018-05-03T22:03:04.051Z,9.60
2018-05-03T22:05:31.513Z,9.60
2018-05-03T22:07:58.966Z,9.50
2018-05-03T22:10:26.490Z,9.50
2018-05-03T22:12:53.936Z,9.50
2018-05-03T22:15:21.400Z,9.40
2018-05-03T22:17:48.845Z,9.40
2018-05-03T22:20:16.297Z,9.50
2018-05-03T22:22:44.507Z,9.50
2018-05-03T22:25:11.969Z,9.40
2018-05-03T22:27:39.436Z,9.40
2018-05-03T22:30:07.662Z,9.50
2018-05-03T22:32:35.149Z,9.50
2018-05-03T22:35:02.623Z,9.50
2018-05-03T22:37:30.089Z,9.40
2018-05-03T22:39:57.570Z,9.30
2018-05-03T22:42:25.591Z,9.20
2018-05-03T22:44:53.093Z,9.20
2018-05-03T22:47:20.564Z,9.10
2018-05-03T22:49:48.004Z,9.10
2018-05-03T22:52:15.468Z,9.00
2018-05-03T22:54:42.909Z,9.00
2018-05-03T22:57:10.364Z,8.90
2018-05-03T22:59:37.812Z,8.80
2018-05-03T23:02:05.284Z,8.70
2018-05-03T23:04:32.765Z,8.70
2018-05-03T23:07:00.229Z,8.70
2018-05-03T23:09:27.725Z,8.60
2018-05-03T23:11:55.256Z,8.50
2018-05-03T23:14:22.704Z,8.50
2018-05-03T23:16:50.266Z,8.50
2018-05-03T23:19:17.772Z,8.50
2018-05-03T23:21:45.348Z,8.40
2018-05-03T23:24:12.788Z,8.30
2018-05-03T23:26:40.236Z,8.30
2018-05-03T23:29:08.477Z,8.20
2018-05-03T23:31:35.928Z,8.20
2018-05-03T23:34:03.388Z,8.10
2018-05-03T23:36:30.851Z,8.10
2018-05-03T23:38:58.320Z,8.10
2018-05-03T23:41:25.792Z,8.10
2018-05-03T23:43:53.248Z,8.10
2018-05-03T23:46:20.688Z,8.00
2018-05-03T23:48:48.147Z,8.00
2018-05-03T23:51:15.593Z,7.90
2018-05-03T23:53:43.049Z,7.90
2018-05-03T23:56:10.493Z,7.90
2018-05-03T23:58:38.733Z,7.80
